CYZV

Sept-Îles Airport

Sept-Îles, Quebec, Canada
METAR CYZV 201800Z 02013G19KT 30SM FEW010 BKN035 OVC060 03/M05 A2995 RMK CF1SC6SC2 CF TR SLP146
Observed Flight Rules
Apr-20 @ 18:00 UTC (26 minutes ago) Visual Flight Rules
Wind Visibility Clouds
20° at 13 knots
 Gusting to 19 knots
30 miles
  • Few at 1,000' AGL
  • Broken at 3,500' AGL
  • Overcast at 6,000' AGL
Temperatures Readings
Current 3°C / 37°F
Dewpoint -5°C / 23°F
Humidity 56%
Altimeter 29.95" Hg
Pressure 1014.6 hPa
Elevation 55
METAR CYZV 201800Z 02013G19KT 30SM FEW010 BKN035 OVC060 03/M05 A2995 RMK CF1SC6SC2 CF TR SLP146
Observed Flight Rules
Apr-20 @ 18:00 UTC
(26 minutes ago)
VFR
Wind Visibility
20° at 13 knots
 Gusting to 19 knots
30 miles
Clouds
  • Few at 1,000' AGL
  • Broken at 3,500' AGL
  • Overcast at 6,000' AGL
Temperature Dewpoint
3°C / 37°F -5°C / 23°F
Humidity Altimeter Pressure
56% 29.95" Hg 1014.6 hPa